メインページ
METAR-TAF:

METAR-TAF

空港 :

レイキャヴィーク, アイスランド

レイキャヴィーク空港

緯度: 64-08N, 経度: 021-54W, 海抜: 54m

現時点の気象観測

当レポートは31分前の23:00(UTC)に作成
東/北東の風 9kt
気温 -2°C
湿度 54%
気圧 1033 hPa
視程10km以上
1,500メートル以下は雲なし、積乱雲なし

METAR: BIRK 232300Z 07009KT CAVOK M02/M10 Q1033

時間: 23:31 (23:31 UTC)

予報

当レポートは4時間1分前の19:30(UTC)に作成
予報は23日の 21時(UTC)から 24日の 21時(UTC)まで有効
の風 10kt
視程10km以上
高度3000ftの雲はほとんどない
高度5000ftの千切れ雲あり
24日の 03時(UTC)から 24日の 06時(UTC)まで徐々に
視程10km以上
1,500メートル以下は雲なし、積乱雲なし
24日の 18時(UTC)から 24日の 21時(UTC)まで徐々に
西の風 7kt

TAF: BIRK 231930Z 2321/2421 01010KT 9999 FEW030 BKN050 TX02/2415Z TNM05/2406Z BECMG 2403/2406 CAVOK BECMG 2418/2421 28007KT

4,000以上の空港の気象観測と天気予報(METAR報とTAF報)

利用可能な観測所は地図上に黄色い丸と赤い丸で示す。

丸の上にカーソルを重ねると観測所名を参照できる。

次にクリックすると気象観測と天気予報を参照できる。

マップの切り替え:黒色「×」印の緑ボタンをクリックして拡大、「-」印の緑ボタンをクリックして縮小、緑色の三角印をクリックして隣りの地図に切り替え


METAR-TAF: